Time;durP1;ratioP1;P1;durP2;ratioP2;P2;SDS_P1;SDS_P2;PMS_P1;PMS_P2;Temp;Humidity;BMP_temperature;BMP_pressure;BME280_temperature;BME280_humidity;BME280_pressure;Samples;Min_cycle;Max_cycle;Signal;HPM_P1;HPM_P2
2022/11/16 00:02:27;;;;;;;;;;;;;;;;;;4942864;29;19970;-84
2022/11/16 00:04:55;;;;;;;;;;;;;;;;;;5526888;23;20640;-84
2022/11/16 00:07:22;;;;;;;;;;;;;;;;;;4944167;29;19903;-84
2022/11/16 00:12:25;;;;;;;;;;;;;;;;;;5801070;23;19926;-83
2022/11/16 00:14:51;;;;;;;;;;;;;;;;;;4966338;28;19909;-85
2022/11/16 00:17:17;;;;;;;;;;;;;;;;;;4962783;28;19905;-85
2022/11/16 00:19:43;;;;;;;;;;;;;;;;;;4946763;28;19903;-84
2022/11/16 00:22:11;;;;;;;;;;;;;;;;;;5044663;23;19911;-84
2022/11/16 00:27:23;;;;;;;;;;;;;;;;;;5021052;23;19922;-84
2022/11/16 00:32:28;;;;;;;;;;;;;;;;;;5032425;23;19911;-85
2022/11/16 00:34:55;;;;;;;;;;;;;;;;;;4966071;28;19978;-85
2022/11/16 00:37:21;;;;;;;;;;;;;;;;;;4946494;29;19902;-85
2022/11/16 00:39:56;;;;;;;;;;;;;;;;;;5198332;23;19930;-84
2022/11/16 00:42:31;;;;;;;;;;;;;;;;;;4965270;28;19970;-85
2022/11/16 00:45:29;;;;;;;;;;;;;;;;;;4979989;28;19919;-84
2022/11/16 00:48:04;;;;;;;;;;;;;;;;;;4949785;29;19989;-84
2022/11/16 00:50:31;;;;;;;;;;;;;;;;;;4979794;29;19925;-84
2022/11/16 00:53:22;;;;;;;;;;;;;;;;;;4980907;28;19906;-84
2022/11/16 00:55:51;;;;;;;;;;;;;;;;;;4964992;28;19903;-84
2022/11/16 01:03:41;;;;;;;;;;;;;;;;;;5411979;23;19911;-84
2022/11/16 01:06:12;;;;;;;;;;;;;;;;;;5282515;23;19934;-84
2022/11/16 01:35:49;;;;;;;;;;;;;;;;;;5717941;23;19910;-83
2022/11/16 01:38:19;;;;;;;;;;;;;;;;;;4965537;28;19998;-85
2022/11/16 01:40:48;;;;;;;;;;;;;;;;;;4963549;28;19918;-84
2022/11/16 01:43:19;;;;;;;;;;;;;;;;;;4949341;28;19937;-84
2022/11/16 01:45:48;;;;;;;;;;;;;;;;;;4957267;23;19954;-85
2022/11/16 01:51:01;;;;;;;;;;;;;;;;;;5764893;23;19978;-85
2022/11/16 01:53:29;;;;;;;;;;;;;;;;;;4979875;28;20407;-84
2022/11/16 01:55:58;;;;;;;;;;;;;;;;;;5241779;23;19946;-85
2022/11/16 01:58:32;;;;;;;;;;;;;;;;;;5702675;23;19946;-83
2022/11/16 02:04:15;;;;;;;;;;;;;;;;;;5905427;23;19982;-84
2022/11/16 02:07:03;;;;;;;;;;;;;;;;;;4946303;29;19919;-84
2022/11/16 02:09:53;;;;;;;;;;;;;;;;;;4945665;28;19953;-84
2022/11/16 02:12:33;;;;;;;;;;;;;;;;;;4946081;29;19921;-84
2022/11/16 02:15:12;;;;;;;;;;;;;;;;;;4946120;29;19919;-85
2022/11/16 02:17:45;;;;;;;;;;;;;;;;;;4943883;29;19922;-84
2022/11/16 02:20:17;;;;;;;;;;;;;;;;;;4944842;29;19899;-85
2022/11/16 02:23:03;;;;;;;;;;;;;;;;;;4946277;28;19926;-85
2022/11/16 02:25:33;;;;;;;;;;;;;;;;;;4944701;29;19911;-84
2022/11/16 02:28:09;;;;;;;;;;;;;;;;;;4945451;28;19899;-85
2022/11/16 02:36:03;;;;;;;;;;;;;;;;;;5517677;23;19926;-84
2022/11/16 02:41:26;;;;;;;;;;;;;;;;;;5596213;23;19925;-81
2022/11/16 02:43:52;;;;;;;;;;;;;;;;;;4947150;29;19903;-85
2022/11/16 02:57:28;;;;;;;;;;;;;;;;;;5164815;23;19923;-84
2022/11/16 03:02:39;;;;;;;;;;;;;;;;;;5212913;23;19911;-84
2022/11/16 03:07:47;;;;;;;;;;;;;;;;;;5722367;23;19926;-84
2022/11/16 03:12:54;;;;;;;;;;;;;;;;;;5629713;23;20934;-84
2022/11/16 03:18:09;;;;;;;;;;;;;;;;;;5218577;23;19910;-84
2022/11/16 03:26:08;;;;;;;;;;;;;;;;;;5567845;23;19930;-84
2022/11/16 03:28:41;;;;;;;;;;;;;;;;;;5648905;23;19925;-84
2022/11/16 03:36:36;;;;;;;;;;;;;;;;;;5480589;23;20842;-82
2022/11/16 03:39:03;;;;;;;;;;;;;;;;;;4951830;28;19930;-84
2022/11/16 03:44:08;;;;;;;;;;;;;;;;;;5859168;23;19930;-84
2022/11/16 04:52:39;;;;;;;;;;;;;;;;;;4959171;28;19934;-83
2022/11/16 04:55:12;;;;;;;;;;;;;;;;;;4957182;29;19899;-82
2022/11/16 04:58:01;;;;;;;;;;;;;;;;;;4942213;29;19918;-83
2022/11/16 05:00:40;;;;;;;;;;;;;;;;;;4927719;29;19982;-83
2022/11/16 05:06:12;;;;;;;;;;;;;;;;;;4942985;29;19922;-84
2022/11/16 05:08:51;;;;;;;;;;;;;;;;;;5326045;23;20673;-82
2022/11/16 05:22:29;;;;;;;;;;;;;;;;;;4960919;28;19911;-84
2022/11/16 05:24:58;;;;;;;;;;;;;;;;;;5057122;23;19914;-84
2022/11/16 05:35:46;;;;;;;;;;;;;;;;;;5077635;23;19910;-84
2022/11/16 05:38:21;;;;;;;;;;;;;;;;;;4957566;23;19935;-84
2022/11/16 05:40:54;;;;;;;;;;;;;;;;;;4931331;28;19903;-84
2022/11/16 05:46:08;;;;;;;;;;;;;;;;;;5621622;23;19925;-83
2022/11/16 05:53:58;;;;;;;;;;;;;;;;;;5866850;23;20139;-85
2022/11/16 05:59:19;;;;;;;;;;;;;;;;;;5189330;23;19911;-84
2022/11/16 06:21:13;;;;;;;;;;;;;;;;;;5931930;23;20753;-85
2022/11/16 06:29:07;;;;;;;;;;;;;;;;;;5754641;23;19911;-84
2022/11/16 06:31:43;;;;;;;;;;;;;;;;;;5434762;23;19926;-83
2022/11/16 06:42:18;;;;;;;;;;;;;;;;;;5125147;23;19910;-84
2022/11/16 06:50:25;;;;;;;;;;;;;;;;;;5492676;23;19930;-84
2022/11/16 06:55:42;;;;;;;;;;;;;;;;;;5916818;23;19998;-82
2022/11/16 06:58:16;;;;;;;;;;;;;;;;;;4959692;28;19917;-83
2022/11/16 07:16:58;;;;;;;;;;;;;;;;;;6058944;23;19921;-91
2022/11/16 07:19:23;;;;;;;;;;;;;;;;;;4926719;29;19919;-89
2022/11/16 07:21:49;;;;;;;;;;;;;;;;;;4949741;29;19914;-91
2022/11/16 07:24:16;;;;;;;;;;;;;;;;;;4937428;29;19919;-90
2022/11/16 07:26:42;;;;;;;;;;;;;;;;;;4943006;29;19980;-88
2022/11/16 07:29:12;;;;;;;;;;;;;;;;;;4959585;29;19910;-92
2022/11/16 07:31:42;;;;;;;;;;;;;;;;;;4944727;29;19925;-88
2022/11/16 07:34:44;;;;;;;;;;;;;;;;;;4962047;29;19923;-89
2022/11/16 07:37:13;;;;;;;;;;;;;;;;;;4933899;29;19914;-89
2022/11/16 07:39:38;;;;;;;;;;;;;;;;;;4932675;29;20009;-92
2022/11/16 07:42:10;;;;;;;;;;;;;;;;;;4951958;29;19933;-90
2022/11/16 07:44:57;;;;;;;;;;;;;;;;;;4939636;29;19985;-91
2022/11/16 07:47:23;;;;;;;;;;;;;;;;;;4927898;29;19914;-91
2022/11/16 07:49:48;;;;;;;;;;;;;;;;;;4928182;29;20302;-91
2022/11/16 07:52:17;;;;;;;;;;;;;;;;;;4928225;29;19962;-91
2022/11/16 07:54:51;;;;;;;;;;;;;;;;;;4927815;29;19945;-92
2022/11/16 07:57:17;;;;;;;;;;;;;;;;;;4942977;29;19914;-91
2022/11/16 07:59:43;;;;;;;;;;;;;;;;;;4941710;29;19921;-92
2022/11/16 08:02:08;;;;;;;;;;;;;;;;;;4926215;29;19965;-91
2022/11/16 08:04:34;;;;;;;;;;;;;;;;;;4926547;29;19914;-92
2022/11/16 08:06:59;;;;;;;;;;;;;;;;;;4925823;29;20393;-93
2022/11/16 08:09:29;;;;;;;;;;;;;;;;;;4926421;29;19919;-92
2022/11/16 08:11:54;;;;;;;;;;;;;;;;;;4925792;29;19961;-94
2022/11/16 08:14:20;;;;;;;;;;;;;;;;;;4931442;29;19915;-94
2022/11/16 08:16:47;;;;;;;;;;;;;;;;;;4937137;29;19921;-91
2022/11/16 08:19:13;;;;;;;;;;;;;;;;;;4935784;29;19922;-92
2022/11/16 08:21:39;;;;;;;;;;;;;;;;;;4944060;29;19981;-93
2022/11/16 08:24:05;;;;;;;;;;;;;;;;;;4942966;29;19921;-90
2022/11/16 08:26:34;;;;;;;;;;;;;;;;;;4943066;29;19922;-92
2022/11/16 08:29:05;;;;;;;;;;;;;;;;;;4941660;29;19915;-92
2022/11/16 08:31:33;;;;;;;;;;;;;;;;;;4924936;29;19927;-94
2022/11/16 08:34:12;;;;;;;;;;;;;;;;;;4926195;29;19922;-90
2022/11/16 08:36:40;;;;;;;;;;;;;;;;;;4956855;29;19937;-93
2022/11/16 08:39:06;;;;;;;;;;;;;;;;;;4925199;29;19918;-93
2022/11/16 08:41:34;;;;;;;;;;;;;;;;;;4924802;29;20374;-93
2022/11/16 08:44:00;;;;;;;;;;;;;;;;;;4940322;29;20353;-93
2022/11/16 08:46:25;;;;;;;;;;;;;;;;;;4924751;29;19914;-94
2022/11/16 08:48:59;;;;;;;;;;;;;;;;;;4925926;29;19922;-93
2022/11/16 08:51:24;;;;;;;;;;;;;;;;;;4956166;29;19919;-93
2022/11/16 08:53:57;;;;;;;;;;;;;;;;;;4940352;29;19966;-93
2022/11/16 08:56:25;;;;;;;;;;;;;;;;;;4925316;29;19915;-93
2022/11/16 08:58:51;;;;;;;;;;;;;;;;;;4923890;29;19992;-93
2022/11/16 09:01:17;;;;;;;;;;;;;;;;;;4924123;29;20342;-92
2022/11/16 09:03:42;;;;;;;;;;;;;;;;;;4924205;29;19914;-93
2022/11/16 09:06:08;;;;;;;;;;;;;;;;;;4923810;29;19942;-93
2022/11/16 09:08:33;;;;;;;;;;;;;;;;;;4924371;29;19921;-93
2022/11/16 09:10:59;;;;;;;;;;;;;;;;;;4939817;29;19923;-93
2022/11/16 09:13:25;;;;;;;;;;;;;;;;;;4940265;29;19915;-94
2022/11/16 09:15:50;;;;;;;;;;;;;;;;;;4940745;29;19918;-93
2022/11/16 09:18:15;;;;;;;;;;;;;;;;;;4955851;29;19922;-92
2022/11/16 09:20:41;;;;;;;;;;;;;;;;;;4924038;29;20359;-94
2022/11/16 09:23:06;;;;;;;;;;;;;;;;;;4955783;29;19969;-95
2022/11/16 09:25:32;;;;;;;;;;;;;;;;;;4939954;29;20385;-93
2022/11/16 09:27:57;;;;;;;;;;;;;;;;;;4939363;29;19914;-91
2022/11/16 09:30:23;;;;;;;;;;;;;;;;;;4956803;28;19926;-92
2022/11/16 09:32:48;;;;;;;;;;;;;;;;;;4923922;29;19969;-93
2022/11/16 09:35:14;;;;;;;;;;;;;;;;;;4955495;29;19921;-93
2022/11/16 09:37:39;;;;;;;;;;;;;;;;;;4955839;29;19932;-94
2022/11/16 09:40:07;;;;;;;;;;;;;;;;;;4923712;29;20390;-93
2022/11/16 09:42:33;;;;;;;;;;;;;;;;;;4939358;29;19914;-92
2022/11/16 09:44:58;;;;;;;;;;;;;;;;;;4938657;29;19950;-93
2022/11/16 09:47:24;;;;;;;;;;;;;;;;;;4954624;29;19914;-93
2022/11/16 09:49:49;;;;;;;;;;;;;;;;;;4955907;29;20009;-93
2022/11/16 09:52:15;;;;;;;;;;;;;;;;;;4939237;29;20026;-92
2022/11/16 09:54:40;;;;;;;;;;;;;;;;;;4939693;29;19962;-92
2022/11/16 09:57:05;;;;;;;;;;;;;;;;;;4923014;29;20503;-94
2022/11/16 09:59:31;;;;;;;;;;;;;;;;;;4938828;29;19910;-93
2022/11/16 10:01:56;;;;;;;;;;;;;;;;;;4923463;29;20402;-92
2022/11/16 10:04:22;;;;;;;;;;;;;;;;;;4923194;29;20429;-91
2022/11/16 10:06:47;;;;;;;;;;;;;;;;;;4938925;29;19920;-93
2022/11/16 10:09:13;;;;;;;;;;;;;;;;;;4922986;29;19910;-93
2022/11/16 10:11:38;;;;;;;;;;;;;;;;;;4923046;29;20409;-93
2022/11/16 10:14:04;;;;;;;;;;;;;;;;;;4923275;29;20376;-93
2022/11/16 10:16:30;;;;;;;;;;;;;;;;;;4923322;29;20377;-93
2022/11/16 10:18:56;;;;;;;;;;;;;;;;;;4923268;29;20000;-92
2022/11/16 10:21:21;;;;;;;;;;;;;;;;;;4923917;29;19915;-92
2022/11/16 10:23:48;;;;;;;;;;;;;;;;;;4924035;29;19914;-92
2022/11/16 10:26:14;;;;;;;;;;;;;;;;;;4924086;29;19921;-94
2022/11/16 10:28:39;;;;;;;;;;;;;;;;;;4924157;29;19915;-91
2022/11/16 10:31:05;;;;;;;;;;;;;;;;;;4939481;29;19934;-92
2022/11/16 10:33:34;;;;;;;;;;;;;;;;;;4923227;29;19911;-94
2022/11/16 10:36:00;;;;;;;;;;;;;;;;;;4923411;29;19915;-94
2022/11/16 10:38:25;;;;;;;;;;;;;;;;;;4940348;29;19910;-94
2022/11/16 10:40:50;;;;;;;;;;;;;;;;;;4922942;29;20314;-93
2022/11/16 10:43:16;;;;;;;;;;;;;;;;;;4923068;29;19970;-93
2022/11/16 10:45:42;;;;;;;;;;;;;;;;;;4923906;29;20262;-93
2022/11/16 10:48:07;;;;;;;;;;;;;;;;;;4922675;29;19914;-92
2022/11/16 10:50:32;;;;;;;;;;;;;;;;;;4938148;29;19934;-93
2022/11/16 10:52:58;;;;;;;;;;;;;;;;;;4922576;29;19922;-92
2022/11/16 10:55:23;;;;;;;;;;;;;;;;;;4938308;29;19917;-91
2022/11/16 10:57:49;;;;;;;;;;;;;;;;;;4922449;29;20282;-93
2022/11/16 11:00:14;;;;;;;;;;;;;;;;;;4922254;29;19914;-93
2022/11/16 11:02:40;;;;;;;;;;;;;;;;;;4921902;29;19915;-93
2022/11/16 11:05:05;;;;;;;;;;;;;;;;;;4921792;29;20255;-92
2022/11/16 11:07:31;;;;;;;;;;;;;;;;;;4938502;29;19921;-93
2022/11/16 11:09:56;;;;;;;;;;;;;;;;;;4922114;29;19922;-92
2022/11/16 11:12:37;;;;;;;;;;;;;;;;;;4955815;29;19922;-93
2022/11/16 11:15:03;;;;;;;;;;;;;;;;;;4942920;29;19998;-93
2022/11/16 11:17:28;;;;;;;;;;;;;;;;;;4927505;29;19919;-93
2022/11/16 11:19:54;;;;;;;;;;;;;;;;;;4927891;29;19951;-90
2022/11/16 11:22:19;;;;;;;;;;;;;;;;;;4957918;29;20326;-96
2022/11/16 11:24:45;;;;;;;;;;;;;;;;;;4941399;29;19914;-94
2022/11/16 11:27:10;;;;;;;;;;;;;;;;;;4927299;29;19962;-93
2022/11/16 11:29:36;;;;;;;;;;;;;;;;;;4943133;29;19918;-93
2022/11/16 11:32:02;;;;;;;;;;;;;;;;;;4943643;29;19915;-93
2022/11/16 11:34:27;;;;;;;;;;;;;;;;;;4926165;29;19914;-93
2022/11/16 11:36:53;;;;;;;;;;;;;;;;;;4943899;29;19938;-94
2022/11/16 11:39:18;;;;;;;;;;;;;;;;;;4945811;29;19949;-93
2022/11/16 11:41:44;;;;;;;;;;;;;;;;;;4926737;29;19922;-94
2022/11/16 11:44:09;;;;;;;;;;;;;;;;;;4925612;29;19919;-93
2022/11/16 11:46:35;;;;;;;;;;;;;;;;;;4927605;29;19910;-93
2022/11/16 11:49:00;;;;;;;;;;;;;;;;;;4928116;29;20437;-93
2022/11/16 11:51:26;;;;;;;;;;;;;;;;;;4928777;29;19929;-90
2022/11/16 11:53:51;;;;;;;;;;;;;;;;;;4940540;29;19921;-90
2022/11/16 11:56:24;;;;;;;;;;;;;;;;;;4945293;29;19903;-91
2022/11/16 11:58:50;;;;;;;;;;;;;;;;;;4936825;29;19925;-93
2022/11/16 12:01:16;;;;;;;;;;;;;;;;;;4950876;29;20013;-93
2022/11/16 12:03:41;;;;;;;;;;;;;;;;;;4932792;29;19960;-94
2022/11/16 12:06:07;;;;;;;;;;;;;;;;;;4948282;29;19915;-94
2022/11/16 12:08:32;;;;;;;;;;;;;;;;;;4948034;29;19974;-93
2022/11/16 12:10:58;;;;;;;;;;;;;;;;;;4931045;29;19941;-93
2022/11/16 12:13:23;;;;;;;;;;;;;;;;;;4932692;29;19963;-93
2022/11/16 12:15:49;;;;;;;;;;;;;;;;;;4932593;29;20389;-93
2022/11/16 12:18:17;;;;;;;;;;;;;;;;;;4932983;29;19924;-93
2022/11/16 12:20:49;;;;;;;;;;;;;;;;;;4932104;29;19926;-92
2022/11/16 12:23:14;;;;;;;;;;;;;;;;;;4931632;29;19930;-92
2022/11/16 12:25:43;;;;;;;;;;;;;;;;;;4932069;29;19910;-91
2022/11/16 12:28:08;;;;;;;;;;;;;;;;;;4935414;29;20021;-93
2022/11/16 12:30:34;;;;;;;;;;;;;;;;;;4937687;29;19973;-92
2022/11/16 12:32:59;;;;;;;;;;;;;;;;;;4952885;29;19922;-90
2022/11/16 12:35:25;;;;;;;;;;;;;;;;;;4957069;29;20305;-90
2022/11/16 12:37:50;;;;;;;;;;;;;;;;;;4942018;29;19922;-92
2022/11/16 12:40:15;;;;;;;;;;;;;;;;;;4958452;29;19914;-93
2022/11/16 12:42:41;;;;;;;;;;;;;;;;;;4938235;29;19915;-92
2022/11/16 12:45:06;;;;;;;;;;;;;;;;;;4934733;29;19938;-93
2022/11/16 12:47:32;;;;;;;;;;;;;;;;;;4932222;29;19914;-92
2022/11/16 12:49:57;;;;;;;;;;;;;;;;;;4931974;29;19985;-93
2022/11/16 12:52:23;;;;;;;;;;;;;;;;;;4932261;29;19954;-93
2022/11/16 12:54:48;;;;;;;;;;;;;;;;;;4930994;29;19914;-92
2022/11/16 12:57:14;;;;;;;;;;;;;;;;;;4929819;29;21626;-91
2022/11/16 12:59:40;;;;;;;;;;;;;;;;;;4949231;29;19949;-94
2022/11/16 13:02:06;;;;;;;;;;;;;;;;;;4927749;28;19922;-94
2022/11/16 13:04:34;;;;;;;;;;;;;;;;;;4928794;29;19922;-93
2022/11/16 13:07:00;;;;;;;;;;;;;;;;;;4931513;29;19914;-90
2022/11/16 13:09:25;;;;;;;;;;;;;;;;;;4946843;29;19915;-94
2022/11/16 13:11:51;;;;;;;;;;;;;;;;;;4931937;29;19921;-93
2022/11/16 13:14:17;;;;;;;;;;;;;;;;;;4946225;29;19918;-93
2022/11/16 13:16:42;;;;;;;;;;;;;;;;;;4930835;29;19983;-90
2022/11/16 13:19:18;;;;;;;;;;;;;;;;;;4935267;23;19966;-82
2022/11/16 13:21:44;;;;;;;;;;;;;;;;;;4938311;29;20303;-83
2022/11/16 13:24:09;;;;;;;;;;;;;;;;;;4938497;29;19954;-82
2022/11/16 13:26:35;;;;;;;;;;;;;;;;;;4937318;29;20268;-84
2022/11/16 13:29:00;;;;;;;;;;;;;;;;;;4935588;29;20443;-85
2022/11/16 13:31:26;;;;;;;;;;;;;;;;;;4936185;29;20325;-85
2022/11/16 13:33:51;;;;;;;;;;;;;;;;;;4936304;29;19966;-83
2022/11/16 13:36:16;;;;;;;;;;;;;;;;;;4935363;29;19914;-86
2022/11/16 13:38:42;;;;;;;;;;;;;;;;;;4936377;29;19915;-83
2022/11/16 13:41:07;;;;;;;;;;;;;;;;;;4934787;29;20009;-86
2022/11/16 13:43:33;;;;;;;;;;;;;;;;;;4936317;29;19917;-85
2022/11/16 13:45:58;;;;;;;;;;;;;;;;;;4936524;29;20054;-85
2022/11/16 13:48:24;;;;;;;;;;;;;;;;;;4936403;29;19922;-84
2022/11/16 13:50:49;;;;;;;;;;;;;;;;;;4936211;29;19919;-85
2022/11/16 13:53:15;;;;;;;;;;;;;;;;;;4934806;29;19911;-86
2022/11/16 13:55:40;;;;;;;;;;;;;;;;;;4934642;29;20374;-85
2022/11/16 13:58:06;;;;;;;;;;;;;;;;;;4935986;29;20387;-85
2022/11/16 14:00:32;;;;;;;;;;;;;;;;;;4936053;29;20023;-86
2022/11/16 14:02:57;;;;;;;;;;;;;;;;;;4935753;29;19974;-85
2022/11/16 14:05:23;;;;;;;;;;;;;;;;;;4935865;29;19915;-85
2022/11/16 14:07:50;;;;;;;;;;;;;;;;;;4934436;29;19915;-86
2022/11/16 14:10:16;;;;;;;;;;;;;;;;;;4934596;29;20085;-85
2022/11/16 14:12:41;;;;;;;;;;;;;;;;;;4934314;29;20465;-85
2022/11/16 14:15:07;;;;;;;;;;;;;;;;;;4949710;28;19915;-85
2022/11/16 14:17:32;;;;;;;;;;;;;;;;;;4935906;29;19915;-86
2022/11/16 14:19:58;;;;;;;;;;;;;;;;;;4935859;29;20306;-85
2022/11/16 14:22:23;;;;;;;;;;;;;;;;;;4950625;29;19922;-86
2022/11/16 14:24:48;;;;;;;;;;;;;;;;;;4934581;29;20329;-86
2022/11/16 14:27:14;;;;;;;;;;;;;;;;;;4935500;29;19915;-86
2022/11/16 14:29:40;;;;;;;;;;;;;;;;;;4935552;29;20442;-85
2022/11/16 14:32:05;;;;;;;;;;;;;;;;;;4935564;29;19921;-84
2022/11/16 14:34:31;;;;;;;;;;;;;;;;;;4934346;29;19923;-86
2022/11/16 14:36:56;;;;;;;;;;;;;;;;;;4935569;29;19919;-86
2022/11/16 14:39:22;;;;;;;;;;;;;;;;;;4934135;29;19915;-86
2022/11/16 14:41:48;;;;;;;;;;;;;;;;;;4934438;29;20387;-83
2022/11/16 14:44:13;;;;;;;;;;;;;;;;;;4934200;29;19915;-85
2022/11/16 14:46:39;;;;;;;;;;;;;;;;;;4935421;29;19954;-86
2022/11/16 14:49:04;;;;;;;;;;;;;;;;;;4935193;29;19915;-85
2022/11/16 14:51:29;;;;;;;;;;;;;;;;;;4934959;29;19997;-86
2022/11/16 14:53:55;;;;;;;;;;;;;;;;;;4934038;29;20422;-86
2022/11/16 14:56:20;;;;;;;;;;;;;;;;;;4918554;29;20271;-86
2022/11/16 14:58:46;;;;;;;;;;;;;;;;;;4933736;29;19950;-85
2022/11/16 15:01:11;;;;;;;;;;;;;;;;;;4935358;29;20397;-85
2022/11/16 15:03:37;;;;;;;;;;;;;;;;;;4935027;29;20379;-85
2022/11/16 15:06:02;;;;;;;;;;;;;;;;;;4935077;29;20031;-86
2022/11/16 15:08:28;;;;;;;;;;;;;;;;;;4935146;29;19911;-85
2022/11/16 15:10:53;;;;;;;;;;;;;;;;;;4934407;29;19925;-86
2022/11/16 15:13:19;;;;;;;;;;;;;;;;;;4949316;29;19915;-86
2022/11/16 15:15:44;;;;;;;;;;;;;;;;;;4934880;29;19915;-86
2022/11/16 15:18:09;;;;;;;;;;;;;;;;;;4934941;29;20378;-86
2022/11/16 15:20:35;;;;;;;;;;;;;;;;;;4934760;29;19922;-85
2022/11/16 15:23:00;;;;;;;;;;;;;;;;;;4917538;29;20397;-85
2022/11/16 15:25:26;;;;;;;;;;;;;;;;;;4936934;29;19939;-85
2022/11/16 15:27:51;;;;;;;;;;;;;;;;;;4938530;29;19915;-85
2022/11/16 15:30:17;;;;;;;;;;;;;;;;;;4938867;29;20289;-85
2022/11/16 15:32:42;;;;;;;;;;;;;;;;;;4906737;29;19917;-85
2022/11/16 15:35:08;;;;;;;;;;;;;;;;;;4938351;29;20341;-84
2022/11/16 15:37:33;;;;;;;;;;;;;;;;;;4937971;29;19915;-86
2022/11/16 15:39:59;;;;;;;;;;;;;;;;;;4939495;29;20263;-86
2022/11/16 15:42:24;;;;;;;;;;;;;;;;;;4938712;29;19921;-84
2022/11/16 15:44:50;;;;;;;;;;;;;;;;;;4937513;29;19914;-86
2022/11/16 15:47:15;;;;;;;;;;;;;;;;;;4937334;29;20068;-86
2022/11/16 15:49:41;;;;;;;;;;;;;;;;;;4937077;29;19915;-85
2022/11/16 15:52:06;;;;;;;;;;;;;;;;;;4939081;29;20342;-86
2022/11/16 15:57:18;;;;;;;;;;;;;;;;;;4939740;29;19938;-86
2022/11/16 15:59:44;;;;;;;;;;;;;;;;;;4940773;29;19939;-86
2022/11/16 16:02:09;;;;;;;;;;;;;;;;;;4944968;29;19914;-86
2022/11/16 16:04:36;;;;;;;;;;;;;;;;;;4955411;29;19915;-85
2022/11/16 16:07:02;;;;;;;;;;;;;;;;;;4936992;29;19986;-86
2022/11/16 16:09:27;;;;;;;;;;;;;;;;;;4937876;29;20398;-85
2022/11/16 16:11:53;;;;;;;;;;;;;;;;;;4936743;29;19925;-84
2022/11/16 16:14:18;;;;;;;;;;;;;;;;;;4937880;29;20498;-86
2022/11/16 16:16:43;;;;;;;;;;;;;;;;;;4937645;29;19962;-86
2022/11/16 16:19:09;;;;;;;;;;;;;;;;;;4952566;29;19954;-85
2022/11/16 16:21:34;;;;;;;;;;;;;;;;;;4936858;29;20294;-86
2022/11/16 16:24:00;;;;;;;;;;;;;;;;;;4938431;29;20327;-86
2022/11/16 16:26:25;;;;;;;;;;;;;;;;;;4936797;29;20282;-84
2022/11/16 16:28:51;;;;;;;;;;;;;;;;;;4936732;29;19915;-85
2022/11/16 16:31:16;;;;;;;;;;;;;;;;;;4937664;29;19918;-87
2022/11/16 16:33:42;;;;;;;;;;;;;;;;;;4938556;29;20327;-83
2022/11/16 16:36:10;;;;;;;;;;;;;;;;;;4937885;29;19926;-86
2022/11/16 16:38:35;;;;;;;;;;;;;;;;;;4936700;29;19918;-86
2022/11/16 16:41:03;;;;;;;;;;;;;;;;;;4938742;29;19915;-86
2022/11/16 16:43:29;;;;;;;;;;;;;;;;;;4937950;29;20298;-86
2022/11/16 16:45:54;;;;;;;;;;;;;;;;;;4937000;29;19998;-86
2022/11/16 16:48:20;;;;;;;;;;;;;;;;;;4953319;29;20295;-85
2022/11/16 16:50:45;;;;;;;;;;;;;;;;;;4952451;29;19919;-86
2022/11/16 16:53:10;;;;;;;;;;;;;;;;;;4941846;29;20327;-84
2022/11/16 16:55:36;;;;;;;;;;;;;;;;;;4945280;29;20343;-85
2022/11/16 16:58:02;;;;;;;;;;;;;;;;;;4943931;29;19946;-85
2022/11/16 17:00:27;;;;;;;;;;;;;;;;;;4937113;29;19923;-85
2022/11/16 17:02:53;;;;;;;;;;;;;;;;;;4935818;29;19911;-86
2022/11/16 17:05:18;;;;;;;;;;;;;;;;;;4937048;29;19996;-84
2022/11/16 17:07:44;;;;;;;;;;;;;;;;;;4936080;29;20017;-85
2022/11/16 17:10:09;;;;;;;;;;;;;;;;;;4935723;29;20342;-86
2022/11/16 17:12:35;;;;;;;;;;;;;;;;;;4952626;29;20343;-84
2022/11/16 17:15:00;;;;;;;;;;;;;;;;;;4937669;29;19915;-85
2022/11/16 17:17:25;;;;;;;;;;;;;;;;;;4935600;29;19921;-86
2022/11/16 17:19:51;;;;;;;;;;;;;;;;;;4936832;29;19934;-86
2022/11/16 17:22:17;;;;;;;;;;;;;;;;;;4919611;29;19915;-85
2022/11/16 17:24:42;;;;;;;;;;;;;;;;;;4919688;29;19914;-86
2022/11/16 17:27:07;;;;;;;;;;;;;;;;;;4919596;29;19919;-86
2022/11/16 17:29:33;;;;;;;;;;;;;;;;;;4935893;29;19915;-85
2022/11/16 17:31:58;;;;;;;;;;;;;;;;;;4935248;29;20429;-84
2022/11/16 17:34:24;;;;;;;;;;;;;;;;;;4919170;29;19921;-86
2022/11/16 17:36:49;;;;;;;;;;;;;;;;;;4951529;29;19914;-85
2022/11/16 17:39:15;;;;;;;;;;;;;;;;;;4951643;29;20108;-85
2022/11/16 17:41:40;;;;;;;;;;;;;;;;;;4951575;29;20413;-85
2022/11/16 17:44:06;;;;;;;;;;;;;;;;;;4935229;29;19915;-86
2022/11/16 17:46:31;;;;;;;;;;;;;;;;;;4935061;29;20383;-85
2022/11/16 17:48:57;;;;;;;;;;;;;;;;;;4934769;29;19915;-86
2022/11/16 17:51:48;;;;;;;;;;;;;;;;;;4934924;29;19922;-85
2022/11/16 17:54:13;;;;;;;;;;;;;;;;;;4919616;29;19937;-84
2022/11/16 17:56:39;;;;;;;;;;;;;;;;;;4936980;29;20397;-83
2022/11/16 17:59:04;;;;;;;;;;;;;;;;;;4952336;29;19992;-85
2022/11/16 18:01:30;;;;;;;;;;;;;;;;;;4939653;29;19914;-86
2022/11/16 18:03:55;;;;;;;;;;;;;;;;;;4942068;29;19915;-84
2022/11/16 18:06:20;;;;;;;;;;;;;;;;;;4937080;29;19937;-84
2022/11/16 18:08:46;;;;;;;;;;;;;;;;;;4952631;29;20289;-86
2022/11/16 18:11:11;;;;;;;;;;;;;;;;;;4935910;29;19919;-85
2022/11/16 18:13:37;;;;;;;;;;;;;;;;;;4935729;29;19926;-85
2022/11/16 18:16:02;;;;;;;;;;;;;;;;;;4934757;29;19914;-86
2022/11/16 18:18:28;;;;;;;;;;;;;;;;;;4935453;29;19929;-85
2022/11/16 18:20:53;;;;;;;;;;;;;;;;;;4934433;29;19915;-86
2022/11/16 18:23:19;;;;;;;;;;;;;;;;;;4950331;29;19931;-85
2022/11/16 18:25:44;;;;;;;;;;;;;;;;;;4934550;29;20387;-84
2022/11/16 18:28:10;;;;;;;;;;;;;;;;;;4937504;29;19934;-85
2022/11/16 18:30:37;;;;;;;;;;;;;;;;;;4936056;29;19919;-86
2022/11/16 18:33:02;;;;;;;;;;;;;;;;;;4935402;29;19915;-84
2022/11/16 18:35:28;;;;;;;;;;;;;;;;;;4937369;29;20272;-84
2022/11/16 18:37:53;;;;;;;;;;;;;;;;;;4936506;29;20410;-83
2022/11/16 18:40:19;;;;;;;;;;;;;;;;;;4937175;29;19921;-84
2022/11/16 18:42:44;;;;;;;;;;;;;;;;;;4938125;29;20001;-87
2022/11/16 18:45:10;;;;;;;;;;;;;;;;;;4937323;29;20470;-86
2022/11/16 18:47:35;;;;;;;;;;;;;;;;;;4938407;29;19981;-86
2022/11/16 18:50:01;;;;;;;;;;;;;;;;;;4908966;29;19915;-88
2022/11/16 18:52:26;;;;;;;;;;;;;;;;;;4939502;29;20005;-86
2022/11/16 18:54:52;;;;;;;;;;;;;;;;;;4954931;29;20372;-85
2022/11/16 18:57:18;;;;;;;;;;;;;;;;;;4955939;29;19938;-86
2022/11/16 18:59:43;;;;;;;;;;;;;;;;;;4939414;29;20275;-86
2022/11/16 19:02:09;;;;;;;;;;;;;;;;;;4942321;29;19933;-86
2022/11/16 19:04:34;;;;;;;;;;;;;;;;;;4943796;29;19915;-86
2022/11/16 19:07:00;;;;;;;;;;;;;;;;;;4942730;29;20351;-85
2022/11/16 19:09:26;;;;;;;;;;;;;;;;;;4913115;29;19915;-86
2022/11/16 19:11:52;;;;;;;;;;;;;;;;;;4943396;29;20302;-84
2022/11/16 19:14:17;;;;;;;;;;;;;;;;;;4943235;29;19919;-86
2022/11/16 19:16:45;;;;;;;;;;;;;;;;;;4942334;29;19914;-84
2022/11/16 19:19:11;;;;;;;;;;;;;;;;;;4957998;23;19937;-94
2022/11/16 19:21:37;;;;;;;;;;;;;;;;;;4932675;29;19914;-93
2022/11/16 19:24:03;;;;;;;;;;;;;;;;;;4932758;29;19914;-94
2022/11/16 19:26:28;;;;;;;;;;;;;;;;;;4948879;29;19922;-93
2022/11/16 19:28:54;;;;;;;;;;;;;;;;;;4931861;29;19914;-93
2022/11/16 19:31:20;;;;;;;;;;;;;;;;;;4946941;29;19948;-91
2022/11/16 19:33:45;;;;;;;;;;;;;;;;;;4932571;29;20342;-94
2022/11/16 19:36:11;;;;;;;;;;;;;;;;;;4933682;29;20378;-92
2022/11/16 19:38:39;;;;;;;;;;;;;;;;;;4933583;29;19915;-95
2022/11/16 19:41:05;;;;;;;;;;;;;;;;;;4949850;29;19918;-93
2022/11/16 19:43:30;;;;;;;;;;;;;;;;;;4949879;29;19973;-94
2022/11/16 19:45:56;;;;;;;;;;;;;;;;;;4934897;29;19995;-93
2022/11/16 19:48:21;;;;;;;;;;;;;;;;;;4933621;29;19919;-94
2022/11/16 19:50:47;;;;;;;;;;;;;;;;;;4932533;29;19918;-94
2022/11/16 19:53:12;;;;;;;;;;;;;;;;;;4934129;29;19973;-94
2022/11/16 19:55:38;;;;;;;;;;;;;;;;;;4933112;29;20345;-94
2022/11/16 19:58:05;;;;;;;;;;;;;;;;;;4933267;29;19915;-94
2022/11/16 20:00:30;;;;;;;;;;;;;;;;;;4932180;29;19990;-93
2022/11/16 20:02:56;;;;;;;;;;;;;;;;;;4933811;29;19961;-93
2022/11/16 20:05:22;;;;;;;;;;;;;;;;;;4949982;29;19919;-93
2022/11/16 20:07:47;;;;;;;;;;;;;;;;;;4934067;29;19915;-95
2022/11/16 20:10:13;;;;;;;;;;;;;;;;;;4935018;29;19942;-93
2022/11/16 20:12:39;;;;;;;;;;;;;;;;;;4948327;29;19914;-94
2022/11/16 20:15:04;;;;;;;;;;;;;;;;;;4933826;29;20030;-93
2022/11/16 20:17:30;;;;;;;;;;;;;;;;;;4935776;29;20009;-93
2022/11/16 20:19:55;;;;;;;;;;;;;;;;;;4931547;29;19942;-94
2022/11/16 20:22:21;;;;;;;;;;;;;;;;;;4931462;29;19918;-91
2022/11/16 20:24:46;;;;;;;;;;;;;;;;;;4934644;29;19914;-93
2022/11/16 20:27:12;;;;;;;;;;;;;;;;;;4943531;29;19909;-92
2022/11/16 20:29:37;;;;;;;;;;;;;;;;;;4942304;29;19923;-93
2022/11/16 20:32:03;;;;;;;;;;;;;;;;;;4941193;29;19918;-94
2022/11/16 20:34:28;;;;;;;;;;;;;;;;;;4940589;29;19942;-94
2022/11/16 20:36:54;;;;;;;;;;;;;;;;;;4936062;29;19982;-89
2022/11/16 20:39:19;;;;;;;;;;;;;;;;;;4935013;29;19914;-93
2022/11/16 20:41:45;;;;;;;;;;;;;;;;;;4938407;29;19914;-92
2022/11/16 20:44:12;;;;;;;;;;;;;;;;;;4951002;29;19922;-92
2022/11/16 20:46:39;;;;;;;;;;;;;;;;;;4936512;29;19937;-93
2022/11/16 20:49:04;;;;;;;;;;;;;;;;;;4949444;29;19929;-93
2022/11/16 20:51:30;;;;;;;;;;;;;;;;;;4934357;29;20301;-93
2022/11/16 20:53:55;;;;;;;;;;;;;;;;;;4934049;29;20385;-93
2022/11/16 20:56:21;;;;;;;;;;;;;;;;;;4935681;29;19924;-93